Time;durP1;ratioP1;P1;durP2;ratioP2;P2;SDS_P1;SDS_P2;PMS_P1;PMS_P2;Temp;Humidity;BMP_temperature;BMP_pressure;BME280_temperature;BME280_humidity;BME280_pressure;Samples;Min_cycle;Max_cycle;Signal;HPM_P1;HPM_P2
2024/01/18 00:01:30;;;;;;;3.63;3.33;;;;;;;3.93;100.00;99893.25;5065169;28;20048;-72
2024/01/18 00:03:55;;;;;;;1.40;1.35;;;;;;;4.07;100.00;99903.84;5064392;28;20057;-74
2024/01/18 00:06:20;;;;;;;0.60;0.60;;;;;;;4.05;100.00;99899.47;5063397;28;20041;-73
2024/01/18 00:08:46;;;;;;;6.13;5.78;;;;;;;3.87;100.00;99885.34;5063909;28;20679;-74
2024/01/18 00:11:12;;;;;;;0.57;0.57;;;;;;;3.94;100.00;99889.78;5066787;28;20037;-72
2024/01/18 00:13:37;;;;;;;0.50;0.50;;;;;;;3.90;100.00;99882.78;5063748;28;20045;-73
2024/01/18 00:16:03;;;;;;;0.88;0.45;;;;;;;3.35;100.00;99791.84;5059752;28;20144;-73
2024/01/18 00:18:28;;;;;;;0.47;0.47;;;;;;;3.92;100.00;99856.88;5068048;28;20056;-73
2024/01/18 00:20:54;;;;;;;0.68;0.68;;;;;;;3.95;100.00;99896.72;5063936;28;20028;-74
2024/01/18 00:23:19;;;;;;;0.60;0.60;;;;;;;3.53;100.00;99793.91;5061053;28;20124;-74
2024/01/18 00:25:45;;;;;;;1.08;1.02;;;;;;;4.00;100.00;99876.03;5061699;28;20102;-74
2024/01/18 00:28:10;;;;;;;10.27;8.05;;;;;;;4.16;100.00;99896.22;5061443;28;20105;-74
2024/01/18 00:30:37;;;;;;;1.10;1.05;;;;;;;3.58;100.00;99797.47;5065779;28;20048;-73
2024/01/18 00:33:03;;;;;;;0.75;0.75;;;;;;;3.54;100.00;99787.88;5066943;28;20135;-73
2024/01/18 00:35:29;;;;;;;1.10;1.00;;;;;;;4.02;100.00;99872.63;5065267;28;20040;-73
2024/01/18 00:37:54;;;;;;;4.78;4.47;;;;;;;4.08;100.00;99881.38;5065391;28;20094;-73
2024/01/18 00:40:20;;;;;;;1.38;1.30;;;;;;;3.59;100.00;99794.03;5068324;28;20122;-74
2024/01/18 00:42:45;;;;;;;0.30;0.30;;;;;;;3.95;100.00;99857.78;5061714;28;20485;-74
2024/01/18 00:45:11;;;;;;;0.30;0.30;;;;;;;4.04;100.00;99849.28;5058716;28;20115;-74
2024/01/18 00:47:36;;;;;;;0.32;0.32;;;;;;;3.68;100.00;99776.88;5069890;28;20169;-74
2024/01/18 00:50:02;;;;;;;0.40;0.40;;;;;;;3.80;100.00;99787.47;5063741;28;20037;-74
2024/01/18 00:52:28;;;;;;;3.90;3.70;;;;;;;4.25;100.00;99873.88;5066048;28;20056;-74
2024/01/18 00:54:54;;;;;;;0.30;0.30;;;;;;;3.93;100.00;99814.50;5045169;28;20048;-74
2024/01/18 00:57:19;;;;;;;0.47;0.47;;;;;;;4.18;100.00;99871.16;5062134;28;20052;-74
2024/01/18 00:59:44;;;;;;;6.85;5.25;;;;;;;3.48;100.00;99763.56;5062898;28;20032;-74
2024/01/18 01:02:10;;;;;;;0.43;0.43;;;;;;;4.16;100.00;99854.69;5070830;28;20036;-74
2024/01/18 01:04:35;;;;;;;7.55;4.45;;;;;;;4.08;100.00;99866.69;5064945;28;20048;-74
2024/01/18 01:07:01;;;;;;;4.72;4.50;;;;;;;3.89;100.00;99830.88;5070420;28;20492;-74
2024/01/18 01:09:27;;;;;;;0.40;0.40;;;;;;;4.12;100.00;99863.28;5067684;28;20040;-73
2024/01/18 01:11:52;;;;;;;1.05;1.05;;;;;;;3.84;100.00;99856.75;5057169;28;20032;-73
2024/01/18 01:14:18;;;;;;;0.30;0.30;;;;;;;3.92;100.00;99859.47;5068255;28;20052;-74
2024/01/18 01:16:44;;;;;;;1.23;0.75;;;;;;;3.63;100.00;99771.63;5062590;28;20126;-75
2024/01/18 01:19:09;;;;;;;1.95;1.85;;;;;;;3.67;100.00;99762.16;5066842;28;20496;-74
2024/01/18 01:21:35;;;;;;;0.45;0.45;;;;;;;3.08;100.00;99732.56;5054120;28;20044;-73
2024/01/18 01:24:01;;;;;;;1.73;1.63;;;;;;;3.80;100.00;99845.41;5072925;28;20054;-74
2024/01/18 01:26:26;;;;;;;6.05;5.78;;;;;;;3.26;100.00;99742.41;5056798;28;20444;-74
2024/01/18 01:28:52;;;;;;;1.30;1.23;;;;;;;3.81;100.00;99828.13;5056945;28;20059;-73
2024/01/18 01:31:18;;;;;;;2.90;2.75;;;;;;;3.57;100.00;99851.91;5058495;28;20075;-73
2024/01/18 01:33:44;;;;;;;5.88;5.57;;;;;;;3.48;100.00;99833.56;5063327;28;20072;-73
2024/01/18 01:36:09;;;;;;;0.60;0.60;;;;;;;3.16;100.00;99725.81;5067193;28;20040;-74
2024/01/18 01:38:35;;;;;;;3.67;3.50;;;;;;;3.76;100.00;99807.28;5069343;28;20028;-74
2024/01/18 01:41:02;;;;;;;0.73;0.73;;;;;;;3.38;100.00;99723.63;5068439;28;20056;-74
2024/01/18 01:43:28;;;;;;;0.60;0.60;;;;;;;3.92;100.00;99815.34;5073574;28;20255;-74
2024/01/18 01:45:53;;;;;;;0.57;0.57;;;;;;;3.27;100.00;99717.38;5061880;28;20052;-74
2024/01/18 01:48:19;;;;;;;3.58;3.28;;;;;;;3.41;100.00;99731.44;5068026;28;20372;-75
2024/01/18 01:50:46;;;;;;;1.77;1.67;;;;;;;3.86;100.00;99817.81;5067129;28;20032;-73
2024/01/18 01:53:14;;;;;;;0.40;0.40;;;;;;;3.73;100.00;99807.25;5068681;28;20070;-74
2024/01/18 01:55:42;;;;;;;3.05;2.70;;;;;;;3.74;100.00;99793.41;5061701;28;20093;-74
2024/01/18 01:58:08;;;;;;;41.40;14.57;;;;;;;3.20;100.00;99700.81;5071555;28;20066;-74
2024/01/18 02:00:34;;;;;;;0.52;0.47;;;;;;;3.59;100.00;99778.47;5069137;28;20048;-74
2024/01/18 02:02:59;;;;;;;0.70;0.70;;;;;;;3.43;100.00;99767.78;5066553;28;20028;-74
2024/01/18 02:05:26;;;;;;;3.92;3.67;;;;;;;3.71;100.00;99797.69;5067939;28;20032;-74
2024/01/18 02:07:54;;;;;;;0.90;0.90;;;;;;;3.20;100.00;99698.22;5076344;28;20084;-74
2024/01/18 02:10:20;;;;;;;2.45;2.25;;;;;;;3.22;100.00;99686.16;5070442;28;20106;-73
2024/01/18 02:12:45;;;;;;;0.43;0.43;;;;;;;3.66;100.00;99778.56;5063296;28;20049;-73
2024/01/18 02:15:11;;;;;;;15.82;9.45;;;;;;;3.35;100.00;99706.28;5064498;28;20612;-74
2024/01/18 02:17:37;;;;;;;4.55;2.67;;;;;;;3.93;100.00;99786.84;5071092;28;20036;-74
2024/01/18 02:20:04;;;;;;;0.68;0.68;;;;;;;4.02;100.00;99767.91;5066348;28;20074;-73
2024/01/18 02:22:32;;;;;;;11.88;10.70;;;;;;;3.65;100.00;99678.22;5073817;28;20037;-74
2024/01/18 02:25:25;;;;;;;0.90;0.90;;;;;;;4.22;97.85;99774.31;5075584;28;20099;-73
2024/01/18 02:27:55;;;;;;;3.75;3.50;;;;;;;3.75;97.76;99696.59;5075428;28;20054;-74
2024/01/18 02:30:21;;;;;;;1.92;1.83;;;;;;;3.72;97.03;99667.09;5077447;28;20680;-73
2024/01/18 02:32:46;;;;;;;1.25;1.20;;;;;;;3.71;100.00;99706.88;5077201;28;20029;-73
2024/01/18 02:35:12;;;;;;;1.02;1.00;;;;;;;3.59;100.00;99666.06;5078201;28;20469;-74
2024/01/18 02:37:38;;;;;;;17.27;16.20;;;;;;;3.61;98.69;99690.31;5069590;28;20083;-74
2024/01/18 02:40:05;;;;;;;1.85;1.70;;;;;;;3.98;98.91;99751.44;5074065;28;20071;-74
2024/01/18 02:42:32;;;;;;;0.38;0.38;;;;;;;4.12;97.19;99756.84;5072138;28;20130;-73
2024/01/18 02:44:59;;;;;;;0.40;0.40;;;;;;;4.25;95.58;99744.03;5073131;28;20055;-74
2024/01/18 02:47:25;;;;;;;6.22;5.80;;;;;;;4.22;98.80;99744.88;5072838;28;20070;-73
2024/01/18 02:49:50;;;;;;;0.30;0.30;;;;;;;3.80;98.35;99661.19;5069426;28;20043;-73
2024/01/18 02:52:16;;;;;;;16.83;15.60;;;;;;;4.28;97.42;99731.09;5062782;28;20036;-73
2024/01/18 02:54:41;;;;;;;6.07;5.75;;;;;;;4.17;100.00;99694.63;5061672;28;20049;-73
2024/01/18 02:57:07;;;;;;;4.22;3.92;;;;;;;3.70;100.00;99614.31;5057689;28;20442;-73
2024/01/18 02:59:32;;;;;;;0.43;0.43;;;;;;;3.65;100.00;99606.47;5074934;28;20039;-74
2024/01/18 03:01:58;;;;;;;1.52;1.42;;;;;;;4.20;100.00;99707.63;5073435;28;20232;-73
2024/01/18 03:04:23;;;;;;;1.00;1.00;;;;;;;3.57;100.00;99608.94;5075532;28;20136;-73
2024/01/18 03:06:49;;;;;;;13.13;11.75;;;;;;;4.20;100.00;99707.63;5068498;28;20106;-74
2024/01/18 03:09:14;;;;;;;1.33;1.27;;;;;;;3.69;100.00;99622.97;5064171;28;20395;-74
2024/01/18 03:11:40;;;;;;;0.40;0.30;;;;;;;4.16;100.00;99690.25;5076890;28;20032;-73
2024/01/18 03:14:05;;;;;;;1.58;1.48;;;;;;;4.14;100.00;99678.97;5067840;28;20149;-73
2024/01/18 03:16:31;;;;;;;1.42;1.33;;;;;;;4.30;97.44;99708.63;5072339;28;20047;-74
2024/01/18 03:18:57;;;;;;;0.40;0.40;;;;;;;4.44;92.94;99731.31;5066508;28;20965;-73
2024/01/18 03:21:23;;;;;;;0.70;0.70;;;;;;;4.15;91.59;99702.38;5066168;28;20128;-73
2024/01/18 03:23:48;;;;;;;0.38;0.38;;;;;;;3.77;92.71;99645.59;5070079;28;20392;-74
2024/01/18 03:26:14;;;;;;;0.60;0.60;;;;;;;4.21;95.63;99733.63;5057216;28;20106;-75
2024/01/18 03:28:39;;;;;;;0.68;0.68;;;;;;;4.14;99.77;99728.28;5067926;28;20127;-73
2024/01/18 03:31:05;;;;;;;0.38;0.38;;;;;;;4.11;100.00;99736.06;5067106;28;20040;-75
2024/01/18 03:33:30;;;;;;;0.98;0.98;;;;;;;3.65;100.00;99654.88;5064976;28;20089;-73
2024/01/18 03:35:59;;;;;;;0.90;0.90;;;;;;;3.59;100.00;99625.41;5063497;28;20495;-72
2024/01/18 03:38:24;;;;;;;0.30;0.30;;;;;;;3.54;100.00;99628.81;5080364;28;20049;-73
2024/01/18 03:40:50;;;;;;;1.55;1.50;;;;;;;4.00;100.00;99715.09;5070040;28;20037;-73
2024/01/18 03:43:15;;;;;;;9.35;8.45;;;;;;;3.60;100.00;99628.88;5066204;28;20338;-73
2024/01/18 03:45:41;;;;;;;0.50;0.50;;;;;;;4.11;100.00;99720.47;5059960;28;20109;-73
2024/01/18 03:48:06;;;;;;;0.77;0.77;;;;;;;3.81;100.00;99721.75;5070827;28;20032;-73
2024/01/18 03:50:32;;;;;;;0.30;0.30;;;;;;;3.94;100.00;99723.69;5073200;28;20042;-73
2024/01/18 03:52:58;;;;;;;0.50;0.47;;;;;;;3.29;100.00;99610.25;5072282;28;20068;-73
2024/01/18 03:55:23;;;;;;;3.60;3.40;;;;;;;3.36;100.00;99613.81;5074144;28;20155;-74
2024/01/18 03:57:49;;;;;;;1.20;1.17;;;;;;;3.85;100.00;99686.34;5073774;28;20127;-74
2024/01/18 04:00:15;;;;;;;0.52;0.52;;;;;;;3.63;100.00;99665.25;5075980;28;20024;-74
2024/01/18 04:02:40;;;;;;;3.65;1.10;;;;;;;3.97;100.00;99721.13;5072589;28;20059;-73
2024/01/18 04:05:07;;;;;;;1.77;1.67;;;;;;;3.51;100.00;99613.16;5066612;28;20101;-74
2024/01/18 04:07:32;;;;;;;5.82;5.55;;;;;;;3.82;100.00;99713.13;5067933;28;20036;-76
2024/01/18 04:09:58;;;;;;;0.32;0.32;;;;;;;4.01;100.00;99701.28;5065818;28;20045;-73
2024/01/18 04:12:23;;;;;;;0.30;0.30;;;;;;;3.64;100.00;99611.66;5065512;28;20393;-74
2024/01/18 04:14:49;;;;;;;0.25;0.25;;;;;;;4.19;100.00;99708.47;5069360;28;20484;-75
2024/01/18 04:17:14;;;;;;;0.30;0.30;;;;;;;3.70;100.00;99627.28;5050572;28;20401;-74
2024/01/18 04:19:40;;;;;;;9.00;7.32;;;;;;;4.07;100.00;99711.75;5069094;28;20090;-73
2024/01/18 04:22:06;;;;;;;0.60;0.60;;;;;;;4.15;100.00;99719.69;5073839;28;20056;-73
2024/01/18 04:24:32;;;;;;;0.55;0.55;;;;;;;3.69;100.00;99629.00;5074280;28;20129;-74
2024/01/18 04:26:58;;;;;;;0.40;0.40;;;;;;;4.16;100.00;99703.22;5061232;28;20105;-75
2024/01/18 04:29:23;;;;;;;4.93;4.53;;;;;;;4.17;100.00;99694.63;5074168;28;20044;-73
2024/01/18 04:31:49;;;;;;;0.98;0.98;;;;;;;3.58;100.00;99600.34;5062565;28;20040;-74
2024/01/18 04:34:15;;;;;;;2.67;2.58;;;;;;;4.32;100.00;99712.97;5066197;28;20048;-74
2024/01/18 04:36:40;;;;;;;0.82;0.82;;;;;;;4.14;100.00;99686.75;5067077;28;20056;-73
2024/01/18 04:39:06;;;;;;;3.90;3.60;;;;;;;4.28;100.00;99707.72;5060698;28;20068;-74
2024/01/18 04:41:32;;;;;;;6.75;5.15;;;;;;;4.09;100.00;99706.59;5079028;28;20051;-74
2024/01/18 04:43:58;;;;;;;0.30;0.30;;;;;;;3.66;100.00;99609.97;5068161;28;20587;-73
2024/01/18 04:46:24;;;;;;;1.77;1.67;;;;;;;4.27;100.00;99712.06;5072543;28;20043;-74
2024/01/18 04:48:50;;;;;;;1.55;1.45;;;;;;;3.76;100.00;99609.22;5061589;28;20531;-74
2024/01/18 04:51:15;;;;;;;5.30;3.97;;;;;;;4.29;100.00;99705.16;5070919;28;20048;-75
2024/01/18 04:53:41;;;;;;;7.53;4.95;;;;;;;4.25;100.00;99699.91;5067819;28;20031;-74
2024/01/18 04:56:07;;;;;;;0.40;0.40;;;;;;;3.80;100.00;99643.03;5062072;28;20046;-74
2024/01/18 04:58:33;;;;;;;0.40;0.40;;;;;;;3.72;100.00;99617.81;5058244;28;20048;-74
2024/01/18 05:00:58;;;;;;;0.73;0.73;;;;;;;4.26;100.00;99697.34;5062253;28;20436;-73
2024/01/18 05:03:25;;;;;;;0.43;0.43;;;;;;;4.10;100.00;99672.00;5065914;28;21103;-74
2024/01/18 05:05:50;;;;;;;0.73;0.73;;;;;;;3.75;100.00;99612.69;5067832;28;20028;-75
2024/01/18 05:08:17;;;;;;;1.65;1.55;;;;;;;3.85;100.00;99630.13;5065728;28;20056;-74
2024/01/18 05:10:43;;;;;;;0.40;0.40;;;;;;;4.13;100.00;99685.03;5065321;28;20044;-74
2024/01/18 05:13:09;;;;;;;5.40;5.15;;;;;;;4.05;100.00;99697.00;5058989;28;20093;-73
2024/01/18 05:15:34;;;;;;;3.13;1.52;;;;;;;4.05;100.00;99694.41;5060071;28;20070;-74
2024/01/18 05:18:01;;;;;;;3.13;2.92;;;;;;;3.31;100.00;99572.25;5061211;28;20133;-72
2024/01/18 05:20:26;;;;;;;1.20;0.73;;;;;;;4.16;100.00;99687.66;5063259;28;20037;-74
2024/01/18 05:22:52;;;;;;;0.88;0.88;;;;;;;3.69;100.00;99592.69;5045426;28;20539;-74
2024/01/18 05:25:21;;;;;;;1.48;1.38;;;;;;;4.06;100.00;99667.63;5057164;28;20053;-74
2024/01/18 05:27:47;;;;;;;4.00;3.72;;;;;;;3.54;100.00;99603.72;5056525;28;20052;-74
2024/01/18 05:30:13;;;;;;;0.40;0.40;;;;;;;3.72;100.00;99617.81;5061753;28;20058;-75
2024/01/18 05:32:38;;;;;;;3.08;2.92;;;;;;;3.46;100.00;99581.13;5067050;28;20031;-74
2024/01/18 05:35:05;;;;;;;1.08;0.70;;;;;;;3.47;100.00;99583.75;5055825;28;20500;-74
2024/01/18 05:37:31;;;;;;;1.75;1.67;;;;;;;4.16;100.00;99679.88;5061549;28;20312;-75
2024/01/18 05:39:56;;;;;;;0.35;0.35;;;;;;;3.81;100.00;99618.81;5063571;28;20500;-75
2024/01/18 05:42:23;;;;;;;0.57;0.57;;;;;;;3.66;100.00;99594.38;5057233;28;20144;-75
2024/01/18 05:44:50;;;;;;;1.20;1.10;;;;;;;4.00;100.00;99683.97;5060617;28;20040;-75
2024/01/18 05:47:16;;;;;;;4.53;4.15;;;;;;;3.57;100.00;99580.41;5065101;28;20056;-74
2024/01/18 05:49:42;;;;;;;0.35;0.35;;;;;;;4.08;100.00;99673.72;5048656;28;20098;-75
2024/01/18 05:52:07;;;;;;;0.93;0.93;;;;;;;4.15;100.00;99668.63;5066230;28;20047;-75
2024/01/18 05:54:34;;;;;;;4.85;4.43;;;;;;;3.48;100.00;99595.84;5061968;28;20110;-74
2024/01/18 05:57:01;;;;;;;11.27;10.63;;;;;;;3.94;100.00;99658.81;5058349;28;20076;-75
2024/01/18 05:59:28;;;;;;;4.68;4.25;;;;;;;3.86;100.00;99616.28;5052258;28;20111;-74
2024/01/18 06:01:53;;;;;;;15.43;14.05;;;;;;;3.83;100.00;99605.88;5065339;28;20037;-74
2024/01/18 06:04:19;;;;;;;0.63;0.63;;;;;;;3.61;100.00;99557.16;5060696;28;20052;-75
2024/01/18 06:06:45;;;;;;;0.45;0.45;;;;;;;4.05;100.00;99633.00;5054857;28;20048;-74
2024/01/18 06:09:14;;;;;;;0.47;0.47;;;;;;;4.14;100.00;99643.50;5064010;28;20043;-75
2024/01/18 06:11:40;;;;;;;0.65;0.30;;;;;;;4.11;100.00;99646.06;5040621;28;20045;-76
2024/01/18 06:14:05;;;;;;;0.30;0.30;;;;;;;4.00;100.00;99626.84;5042664;28;20169;-75
2024/01/18 06:16:31;;;;;;;1.75;1.65;;;;;;;3.73;100.00;99554.72;5057410;28;20111;-75
2024/01/18 06:18:56;;;;;;;0.30;0.30;;;;;;;4.26;100.00;99635.03;5061246;28;20085;-74
2024/01/18 06:21:22;;;;;;;0.60;0.60;;;;;;;4.08;100.00;99632.19;5062227;28;20040;-75
2024/01/18 06:23:49;;;;;;;1.20;1.15;;;;;;;4.18;100.00;99629.69;5063453;28;20475;-75
2024/01/18 06:26:14;;;;;;;0.30;0.30;;;;;;;3.48;100.00;99533.59;5054474;28;20412;-76
2024/01/18 06:28:40;;;;;;;4.45;4.13;;;;;;;3.99;100.00;99622.53;5064494;28;20048;-76
2024/01/18 06:31:06;;;;;;;0.40;0.40;;;;;;;4.11;100.00;99611.44;5064148;28;20136;-73
2024/01/18 06:33:32;;;;;;;1.75;1.70;;;;;;;4.17;100.00;99634.91;5064670;28;20043;-74
2024/01/18 06:35:57;;;;;;;0.30;0.30;;;;;;;3.99;100.00;99588.78;5062740;28;20048;-74
2024/01/18 06:38:23;;;;;;;3.78;3.47;;;;;;;4.27;100.00;99639.34;5077474;28;20079;-74
2024/01/18 06:40:48;;;;;;;0.30;0.30;;;;;;;4.01;100.00;99587.94;5068370;28;20048;-74
2024/01/18 06:43:15;;;;;;;2.35;2.25;;;;;;;4.16;100.00;99613.22;5076496;28;20122;-75
2024/01/18 06:45:40;;;;;;;4.22;3.90;;;;;;;4.20;100.00;99606.38;5049006;28;20066;-74
2024/01/18 06:48:06;;;;;;;8.27;7.53;;;;;;;3.79;100.00;99536.63;5073945;28;20048;-73
2024/01/18 06:50:33;;;;;;;5.63;5.40;;;;;;;4.34;100.00;99610.00;5078955;28;20480;-74
2024/01/18 06:52:59;;;;;;;0.30;0.30;;;;;;;3.81;100.00;99519.34;5081992;28;20554;-75
2024/01/18 06:55:28;;;;;;;0.40;0.40;;;;;;;4.29;100.00;99613.41;5071582;28;20048;-74
2024/01/18 06:57:54;;;;;;;2.15;2.05;;;;;;;4.29;100.00;99597.81;5067338;28;20598;-74
2024/01/18 07:00:20;;;;;;;6.47;6.13;;;;;;;3.94;100.00;99526.44;5079297;28;20037;-73
2024/01/18 07:02:50;;;;;;;0.70;0.70;;;;;;;4.39;100.00;99597.94;5076630;28;20040;-75
2024/01/18 07:05:20;;;;;;;0.60;0.60;;;;;;;4.21;100.00;99572.66;5053538;28;20283;-74
2024/01/18 07:07:46;;;;;;;1.20;1.20;;;;;;;4.41;100.00;99604.03;5070675;28;20468;-74
2024/01/18 07:10:11;;;;;;;0.38;0.38;;;;;;;3.99;100.00;99522.16;5073619;28;20058;-74
2024/01/18 07:12:37;;;;;;;6.00;4.95;;;;;;;4.52;100.00;99604.16;5072104;28;20060;-75
2024/01/18 07:15:12;;;;;;;6.07;5.80;;;;;;;4.09;100.00;99546.50;5077127;28;20477;-74
2024/01/18 07:17:38;;;;;;;1.80;1.70;;;;;;;3.84;100.00;99518.50;5078282;28;20066;-73
2024/01/18 07:20:06;;;;;;;0.50;0.50;;;;;;;4.42;100.00;99613.56;5074198;28;20051;-74
2024/01/18 07:22:32;;;;;;;0.40;0.40;;;;;;;3.92;100.00;99514.31;5073571;28;20075;-75
2024/01/18 07:24:58;;;;;;;0.47;0.47;;;;;;;4.09;100.00;99559.50;5077109;28;20064;-73
2024/01/18 07:27:23;;;;;;;12.43;11.45;;;;;;;4.06;100.00;99530.03;5069968;28;20052;-74
2024/01/18 07:29:49;;;;;;;0.40;0.40;;;;;;;4.61;100.00;99614.66;5072660;28;20071;-74
2024/01/18 07:32:18;;;;;;;0.32;0.32;;;;;;;4.52;100.00;99606.75;5078913;28;20048;-75
2024/01/18 07:34:45;;;;;;;9.23;8.68;;;;;;;4.39;100.00;99610.06;5080332;28;20774;-74
2024/01/18 07:37:13;;;;;;;2.20;2.10;;;;;;;4.33;100.00;99603.06;5084660;28;20059;-75
2024/01/18 07:39:40;;;;;;;7.97;7.32;;;;;;;4.35;100.00;99590.09;5075575;28;20527;-74
2024/01/18 07:42:07;;;;;;;2.42;2.30;;;;;;;4.58;100.00;99601.59;5071681;28;20534;-74
2024/01/18 07:44:33;;;;;;;0.75;0.75;;;;;;;4.00;100.00;99569.75;5069343;28;20025;-75
2024/01/18 07:46:59;;;;;;;1.15;0.93;;;;;;;4.28;100.00;99575.28;5073841;28;20416;-74
2024/01/18 07:49:24;;;;;;;1.05;1.05;;;;;;;3.74;100.00;99507.16;5068226;28;20161;-74
2024/01/18 07:51:50;;;;;;;0.77;0.77;;;;;;;3.69;100.00;99475.97;5083191;28;20043;-74
2024/01/18 07:54:15;;;;;;;0.50;0.50;;;;;;;4.50;100.00;99594.59;5067743;28;20068;-74
2024/01/18 07:56:42;;;;;;;0.73;0.73;;;;;;;3.82;100.00;99471.81;5071907;28;20032;-74
2024/01/18 07:59:08;;;;;;;1.95;1.85;;;;;;;4.12;100.00;99576.81;5066473;28;20591;-74
2024/01/18 08:01:33;;;;;;;0.55;0.55;;;;;;;4.29;100.00;99574.47;5072193;28;20119;-74
2024/01/18 08:03:59;;;;;;;4.70;4.50;;;;;;;3.99;100.00;99511.78;5072843;28;20044;-74
2024/01/18 08:06:24;;;;;;;1.33;1.23;;;;;;;4.13;100.00;99589.84;5058153;28;20153;-75
2024/01/18 08:08:50;;;;;;;0.50;0.50;;;;;;;4.35;100.00;99596.16;5080542;28;20036;-74
2024/01/18 08:11:16;;;;;;;1.45;0.80;;;;;;;4.15;100.00;99569.97;5072073;28;20055;-74
2024/01/18 08:13:41;;;;;;;1.13;0.98;;;;;;;4.44;100.00;99601.44;5073981;28;20044;-75
2024/01/18 08:16:07;;;;;;;1.02;0.95;;;;;;;4.17;100.00;99537.09;5078460;28;20135;-75
2024/01/18 08:18:33;;;;;;;0.70;0.70;;;;;;;3.82;100.00;99474.41;5075752;28;20047;-74
2024/01/18 08:20:59;;;;;;;0.85;0.85;;;;;;;4.00;100.00;99549.00;5067079;28;20119;-74
2024/01/18 08:23:25;;;;;;;2.92;2.83;;;;;;;4.33;100.00;99577.09;5069741;28;20032;-74
2024/01/18 08:25:51;;;;;;;1.25;1.15;;;;;;;3.96;100.00;99555.03;5062389;28;21209;-75
2024/01/18 08:28:18;;;;;;;4.28;4.03;;;;;;;4.25;100.00;99573.53;5071599;28;20468;-74
2024/01/18 08:30:44;;;;;;;0.50;0.50;;;;;;;4.33;100.00;99571.91;5079140;28;20048;-74
2024/01/18 08:33:10;;;;;;;0.60;0.60;;;;;;;4.28;100.00;99557.97;5073568;28;20051;-74
2024/01/18 08:35:36;;;;;;;0.85;0.82;;;;;;;3.48;100.00;99421.22;5077025;28;20032;-74
2024/01/18 08:38:01;;;;;;;1.65;1.55;;;;;;;4.05;100.00;99511.00;5071847;28;20392;-74
2024/01/18 08:40:27;;;;;;;1.85;1.75;;;;;;;3.93;100.00;99505.66;5074764;28;20712;-75
2024/01/18 08:42:52;;;;;;;0.40;0.40;;;;;;;4.62;100.00;99580.00;5075569;28;20382;-74
2024/01/18 08:45:18;;;;;;;0.80;0.80;;;;;;;4.04;100.00;99492.81;5075800;28;20115;-74
2024/01/18 08:47:44;;;;;;;1.63;1.20;;;;;;;4.69;100.00;99585.28;5074321;28;20024;-75
2024/01/18 08:50:10;;;;;;;2.17;2.08;;;;;;;4.41;100.00;99501.88;5078742;28;20461;-75
2024/01/18 08:52:35;;;;;;;3.17;2.88;;;;;;;4.38;100.00;99470.69;5077267;28;20037;-74
2024/01/18 08:55:01;;;;;;;0.63;0.63;;;;;;;4.64;100.00;99574.84;5071586;28;20480;-75
2024/01/18 08:57:29;;;;;;;0.77;0.77;;;;;;;4.33;100.00;99508.69;5069406;28;20033;-74
2024/01/18 08:59:55;;;;;;;0.30;0.30;;;;;;;4.67;100.00;99569.66;5068621;28;20032;-74
2024/01/18 09:02:20;;;;;;;2.90;2.70;;;;;;;4.95;100.00;99572.53;5075776;28;20091;-73
2024/01/18 09:04:46;;;;;;;0.50;0.50;;;;;;;4.90;100.00;99556.03;5072598;28;20571;-74
2024/01/18 09:07:11;;;;;;;5.00;4.70;;;;;;;5.07;100.00;99562.25;5066717;28;20595;-73
2024/01/18 09:09:37;;;;;;;0.80;0.80;;;;;;;4.32;100.00;99470.59;5068839;28;20053;-75
2024/01/18 09:12:03;;;;;;;7.07;6.68;;;;;;;4.95;100.00;99542.22;5079442;28;20020;-76
2024/01/18 09:14:28;;;;;;;6.10;5.68;;;;;;;4.70;100.00;99483.06;5071837;28;20031;-75
2024/01/18 09:16:54;;;;;;;0.88;0.85;;;;;;;4.49;100.00;99473.34;5074101;28;20404;-74
2024/01/18 09:19:20;;;;;;;1.85;1.75;;;;;;;4.07;100.00;99425.34;5067658;28;20097;-74
2024/01/18 09:21:46;;;;;;;3.42;3.22;;;;;;;4.82;100.00;99527.34;5066194;28;20114;-75
2024/01/18 09:24:13;;;;;;;4.25;4.00;;;;;;;4.04;100.00;99462.53;5077163;28;20127;-74
2024/01/18 09:26:39;;;;;;;0.30;0.30;;;;;;;4.86;100.00;99522.19;5067043;28;20109;-74
2024/01/18 09:29:05;;;;;;;4.10;3.80;;;;;;;5.19;100.00;99523.31;5072557;28;20056;-75
2024/01/18 09:31:32;;;;;;;1.48;1.40;;;;;;;5.47;100.00;99510.50;5079332;28;20052;-75
2024/01/18 09:33:58;;;;;;;0.70;0.70;;;;;;;5.36;100.00;99486.16;5058091;28;20540;-73
2024/01/18 09:36:23;;;;;;;1.00;1.00;;;;;;;5.42;100.00;99463.66;5071056;28;20588;-73
2024/01/18 09:38:49;;;;;;;6.38;5.72;;;;;;;5.52;100.00;99466.31;5075632;28;20651;-74
2024/01/18 09:41:19;;;;;;;1.85;1.17;;;;;;;5.59;100.00;99457.66;5060775;28;20089;-75
2024/01/18 09:43:45;;;;;;;1.60;1.50;;;;;;;5.21;100.00;99396.78;5074061;28;20369;-74
2024/01/18 09:46:14;;;;;;;2.67;0.75;;;;;;;5.79;100.00;99474.25;5073601;28;20048;-75
2024/01/18 09:48:42;;;;;;;0.63;0.60;;;;;;;5.58;100.00;99406.50;5079757;28;20048;-74
2024/01/18 09:51:12;;;;;;;3.00;2.80;;;;;;;5.56;100.00;99390.00;5054690;28;20040;-75
2024/01/18 09:53:40;;;;;;;1.58;1.48;;;;;;;6.00;100.00;99439.63;5059317;28;20472;-74
2024/01/18 09:56:14;;;;;;;3.05;2.90;;;;;;;6.04;100.00;99440.50;5059395;28;20048;-74
2024/01/18 09:58:40;;;;;;;0.47;0.47;;;;;;;5.80;100.00;99381.41;5070955;28;20045;-75
2024/01/18 10:01:11;;;;;;;3.78;3.60;;;;;;;6.25;100.00;99418.81;5078812;28;20069;-74
2024/01/18 10:03:36;;;;;;;1.15;1.10;;;;;;;6.41;100.00;99443.16;5067506;28;20045;-74
2024/01/18 10:06:02;;;;;;;0.30;0.30;;;;;;;5.85;100.00;99349.31;5028857;28;20040;-75
2024/01/18 10:08:28;;;;;;;0.50;0.50;;;;;;;6.07;100.00;99347.63;5047846;28;20148;-74
2024/01/18 10:10:55;;;;;;;0.50;0.50;;;;;;;6.09;100.00;99342.44;5060261;28;20063;-75
2024/01/18 10:13:20;;;;;;;3.00;2.85;;;;;;;6.66;100.00;99423.22;5045802;28;20097;-73
2024/01/18 10:15:47;;;;;;;2.55;2.35;;;;;;;6.66;100.00;99412.78;5050681;28;20056;-75
2024/01/18 10:18:12;;;;;;;1.08;1.05;;;;;;;6.38;100.00;99363.28;5050656;28;20488;-75
2024/01/18 10:20:39;;;;;;;4.00;3.72;;;;;;;6.29;100.00;99321.59;5049233;28;20071;-74
2024/01/18 10:23:05;;;;;;;4.20;3.90;;;;;;;6.35;100.00;99334.63;5052970;28;20045;-74
2024/01/18 10:25:32;;;;;;;1.33;1.23;;;;;;;6.88;100.00;99413.63;5050419;28;20045;-74
2024/01/18 10:27:58;;;;;;;7.43;6.97;;;;;;;6.95;100.00;99405.81;5044213;28;20060;-74
2024/01/18 10:30:24;;;;;;;6.85;6.43;;;;;;;6.47;100.00;99331.16;5075292;28;20048;-73
2024/01/18 10:32:50;;;;;;;4.68;4.38;;;;;;;6.97;100.00;99400.56;5054160;28;20056;-74
2024/01/18 10:35:24;;;;;;;7.78;7.40;;;;;;;6.83;100.00;99363.22;5061818;28;20119;-74
2024/01/18 10:37:59;;;;;;;3.45;3.30;;;;;;;6.90;100.00;99365.81;5053159;28;20072;-74
2024/01/18 10:40:25;;;;;;;1.13;1.10;;;;;;;6.99;100.00;99393.63;5055190;28;20079;-74
2024/01/18 10:42:50;;;;;;;2.28;2.05;;;;;;;6.95;100.00;99371.03;5071870;28;20158;-74
2024/01/18 10:45:16;;;;;;;1.85;1.75;;;;;;;6.62;100.00;99275.50;5068524;28;20496;-76
2024/01/18 10:47:43;;;;;;;2.10;2.00;;;;;;;7.24;100.00;99381.38;5072865;28;20032;-75
2024/01/18 10:50:10;;;;;;;3.22;3.03;;;;;;;6.89;100.00;99290.22;5055434;28;20041;-75
2024/01/18 10:52:37;;;;;;;14.55;10.07;;;;;;;6.93;100.00;99287.59;5058093;28;20052;-75
2024/01/18 10:55:07;;;;;;;0.38;0.38;;;;;;;7.51;100.00;99356.03;5054939;28;20123;-76
2024/01/18 10:57:34;;;;;;;3.05;2.95;;;;;;;7.49;100.00;99357.78;5056693;28;20048;-74
2024/01/18 10:59:59;;;;;;;14.63;13.77;;;;;;;7.67;100.00;99349.00;5057233;28;20036;-74
2024/01/18 11:02:25;;;;;;;1.42;1.33;;;;;;;7.39;100.00;99318.69;5055396;28;20280;-75
2024/01/18 11:04:52;;;;;;;2.83;2.67;;;;;;;7.36;100.00;99257.84;5065816;28;20573;-75
2024/01/18 11:07:19;;;;;;;0.60;0.60;;;;;;;7.55;100.00;99266.41;5051084;28;20476;-74
2024/01/18 11:09:46;;;;;;;3.63;3.33;;;;;;;8.07;100.00;99320.88;5057640;28;20095;-75
2024/01/18 11:12:13;;;;;;;1.98;1.88;;;;;;;7.98;100.00;99293.09;5049453;28;20111;-73
2024/01/18 11:14:40;;;;;;;2.92;1.20;;;;;;;7.81;100.00;99240.13;5052070;28;20032;-74
2024/01/18 11:17:15;;;;;;;1.65;1.08;;;;;;;8.35;100.00;99333.72;5053691;28;20186;-74
2024/01/18 11:19:43;;;;;;;2.60;2.50;;;;;;;8.41;100.00;99316.28;5058278;28;20049;-75
2024/01/18 11:22:10;;;;;;;2.65;2.45;;;;;;;7.63;100.00;99230.66;5055286;28;20040;-74
2024/01/18 11:24:37;;;;;;;1.15;1.05;;;;;;;7.87;100.00;99236.59;5055324;28;20497;-74
2024/01/18 11:27:23;;;;;;;4.88;4.47;;;;;;;8.41;100.00;99320.66;5035868;28;20045;-74
2024/01/18 11:29:49;;;;;;;0.60;0.60;;;;;;;7.99;100.00;99250.41;5058984;28;20492;-74